sensor_id;sensor_type;location;lat;lon;timestamp;temperature;humidity
4578;DHT22;2301;47.354;8.528;2023-02-28T00:00:34;9.10;62.20
4578;DHT22;2301;47.354;8.528;2023-02-28T00:03:02;9.10;63.30
4578;DHT22;2301;47.354;8.528;2023-02-28T00:05:29;9.10;62.10
4578;DHT22;2301;47.354;8.528;2023-02-28T00:07:56;9.00;62.10
4578;DHT22;2301;47.354;8.528;2023-02-28T00:10:25;9.00;61.50
4578;DHT22;2301;47.354;8.528;2023-02-28T00:12:56;9.10;62.80
4578;DHT22;2301;47.354;8.528;2023-02-28T00:15:25;9.20;63.50
4578;DHT22;2301;47.354;8.528;2023-02-28T00:17:52;9.20;63.00
4578;DHT22;2301;47.354;8.528;2023-02-28T00:20:20;9.30;63.00
4578;DHT22;2301;47.354;8.528;2023-02-28T00:22:48;9.30;62.70
4578;DHT22;2301;47.354;8.528;2023-02-28T00:25:17;9.30;61.80
4578;DHT22;2301;47.354;8.528;2023-02-28T00:27:45;9.30;61.00
4578;DHT22;2301;47.354;8.528;2023-02-28T00:30:17;9.30;62.10
4578;DHT22;2301;47.354;8.528;2023-02-28T00:32:44;9.40;62.10
4578;DHT22;2301;47.354;8.528;2023-02-28T00:35:12;9.30;60.40
4578;DHT22;2301;47.354;8.528;2023-02-28T00:37:39;9.20;60.60
4578;DHT22;2301;47.354;8.528;2023-02-28T00:40:07;9.20;61.10
4578;DHT22;2301;47.354;8.528;2023-02-28T00:42:35;9.20;61.20
4578;DHT22;2301;47.354;8.528;2023-02-28T00:45:03;9.30;61.10
4578;DHT22;2301;47.354;8.528;2023-02-28T00:47:32;9.20;59.60
4578;DHT22;2301;47.354;8.528;2023-02-28T00:49:59;9.20;60.70
4578;DHT22;2301;47.354;8.528;2023-02-28T00:52:26;9.30;61.30
4578;DHT22;2301;47.354;8.528;2023-02-28T00:54:55;9.30;61.10
4578;DHT22;2301;47.354;8.528;2023-02-28T00:57:22;9.40;61.00
4578;DHT22;2301;47.354;8.528;2023-02-28T00:59:49;9.50;60.80
4578;DHT22;2301;47.354;8.528;2023-02-28T01:02:16;9.40;58.30
4578;DHT22;2301;47.354;8.528;2023-02-28T01:04:45;9.30;57.10
4578;DHT22;2301;47.354;8.528;2023-02-28T01:07:13;9.10;59.00
4578;DHT22;2301;47.354;8.528;2023-02-28T01:09:40;9.10;59.80
4578;DHT22;2301;47.354;8.528;2023-02-28T01:12:08;9.10;60.40
4578;DHT22;2301;47.354;8.528;2023-02-28T01:14:35;9.20;60.70
4578;DHT22;2301;47.354;8.528;2023-02-28T01:17:02;9.20;60.30
4578;DHT22;2301;47.354;8.528;2023-02-28T01:19:29;9.30;60.00
4578;DHT22;2301;47.354;8.528;2023-02-28T01:22:00;9.30;59.80
4578;DHT22;2301;47.354;8.528;2023-02-28T01:24:27;9.30;59.90
4578;DHT22;2301;47.354;8.528;2023-02-28T01:26:54;9.40;62.30
4578;DHT22;2301;47.354;8.528;2023-02-28T01:29:21;9.40;60.70
4578;DHT22;2301;47.354;8.528;2023-02-28T01:31:48;9.40;60.50
4578;DHT22;2301;47.354;8.528;2023-02-28T01:34:15;9.30;59.50
4578;DHT22;2301;47.354;8.528;2023-02-28T01:36:44;9.40;60.60
4578;DHT22;2301;47.354;8.528;2023-02-28T01:39:13;9.30;59.40
4578;DHT22;2301;47.354;8.528;2023-02-28T01:41:43;9.20;59.60
4578;DHT22;2301;47.354;8.528;2023-02-28T01:47:10;9.30;60.70
4578;DHT22;2301;47.354;8.528;2023-02-28T01:49:37;9.30;60.40
4578;DHT22;2301;47.354;8.528;2023-02-28T01:52:04;9.40;60.20
4578;DHT22;2301;47.354;8.528;2023-02-28T01:54:34;9.40;59.40
4578;DHT22;2301;47.354;8.528;2023-02-28T01:57:04;9.30;59.50
4578;DHT22;2301;47.354;8.528;2023-02-28T01:59:37;9.20;58.20
4578;DHT22;2301;47.354;8.528;2023-02-28T02:02:06;9.10;58.20
4578;DHT22;2301;47.354;8.528;2023-02-28T02:04:37;9.10;59.10
4578;DHT22;2301;47.354;8.528;2023-02-28T02:07:06;9.10;59.60
4578;DHT22;2301;47.354;8.528;2023-02-28T02:09:34;9.10;59.90
4578;DHT22;2301;47.354;8.528;2023-02-28T02:12:06;9.20;60.00
4578;DHT22;2301;47.354;8.528;2023-02-28T02:14:43;9.20;59.50
4578;DHT22;2301;47.354;8.528;2023-02-28T02:17:25;9.30;60.00
4578;DHT22;2301;47.354;8.528;2023-02-28T02:20:22;9.30;59.70
4578;DHT22;2301;47.354;8.528;2023-02-28T02:23:19;9.40;59.50
4578;DHT22;2301;47.354;8.528;2023-02-28T02:25:53;9.30;58.10
4578;DHT22;2301;47.354;8.528;2023-02-28T02:28:58;9.30;59.20
4578;DHT22;2301;47.354;8.528;2023-02-28T02:31:56;9.20;58.10
4578;DHT22;2301;47.354;8.528;2023-02-28T02:34:48;9.20;59.40
4578;DHT22;2301;47.354;8.528;2023-02-28T02:37:27;9.20;58.40
4578;DHT22;2301;47.354;8.528;2023-02-28T02:40:02;9.30;58.70
4578;DHT22;2301;47.354;8.528;2023-02-28T02:42:37;9.30;58.70
4578;DHT22;2301;47.354;8.528;2023-02-28T02:45:10;9.30;58.80
4578;DHT22;2301;47.354;8.528;2023-02-28T02:47:39;9.40;59.20
4578;DHT22;2301;47.354;8.528;2023-02-28T02:50:13;9.30;58.20
4578;DHT22;2301;47.354;8.528;2023-02-28T02:52:42;9.20;58.40
4578;DHT22;2301;47.354;8.528;2023-02-28T02:55:13;9.10;58.30
4578;DHT22;2301;47.354;8.528;2023-02-28T02:57:45;9.10;59.60
4578;DHT22;2301;47.354;8.528;2023-02-28T03:00:15;9.00;57.70
4578;DHT22;2301;47.354;8.528;2023-02-28T03:02:45;9.00;58.50
4578;DHT22;2301;47.354;8.528;2023-02-28T03:05:18;9.00;58.70
4578;DHT22;2301;47.354;8.528;2023-02-28T03:07:45;9.10;58.40
4578;DHT22;2301;47.354;8.528;2023-02-28T03:10:30;9.10;58.40
4578;DHT22;2301;47.354;8.528;2023-02-28T03:13:09;9.10;58.60
4578;DHT22;2301;47.354;8.528;2023-02-28T03:15:47;9.10;58.60
4578;DHT22;2301;47.354;8.528;2023-02-28T03:18:19;9.20;58.90
4578;DHT22;2301;47.354;8.528;2023-02-28T03:20:57;9.20;59.30
4578;DHT22;2301;47.354;8.528;2023-02-28T03:23:35;9.30;58.70
4578;DHT22;2301;47.354;8.528;2023-02-28T03:26:07;9.20;57.70
4578;DHT22;2301;47.354;8.528;2023-02-28T03:28:43;9.10;56.80
4578;DHT22;2301;47.354;8.528;2023-02-28T03:31:18;9.20;58.00
4578;DHT22;2301;47.354;8.528;2023-02-28T03:33:49;9.20;57.70
4578;DHT22;2301;47.354;8.528;2023-02-28T03:36:25;9.20;57.70
4578;DHT22;2301;47.354;8.528;2023-02-28T03:38:57;9.20;58.30
4578;DHT22;2301;47.354;8.528;2023-02-28T03:41:30;9.20;58.30
4578;DHT22;2301;47.354;8.528;2023-02-28T03:44:03;9.30;58.10
4578;DHT22;2301;47.354;8.528;2023-02-28T03:46:34;9.40;58.10
4578;DHT22;2301;47.354;8.528;2023-02-28T03:49:08;9.40;58.30
4578;DHT22;2301;47.354;8.528;2023-02-28T03:51:41;9.40;58.20
4578;DHT22;2301;47.354;8.528;2023-02-28T03:54:12;9.40;58.00
4578;DHT22;2301;47.354;8.528;2023-02-28T03:56:45;9.40;57.20
4578;DHT22;2301;47.354;8.528;2023-02-28T03:59:15;9.30;57.10
4578;DHT22;2301;47.354;8.528;2023-02-28T04:01:45;9.30;57.10
4578;DHT22;2301;47.354;8.528;2023-02-28T04:04:13;9.30;57.10
4578;DHT22;2301;47.354;8.528;2023-02-28T04:06:42;9.40;57.50
4578;DHT22;2301;47.354;8.528;2023-02-28T04:09:11;9.40;57.40
4578;DHT22;2301;47.354;8.528;2023-02-28T04:11:40;9.40;57.80
4578;DHT22;2301;47.354;8.528;2023-02-28T04:14:09;9.40;57.20
4578;DHT22;2301;47.354;8.528;2023-02-28T04:16:38;9.30;56.20
4578;DHT22;2301;47.354;8.528;2023-02-28T04:19:07;9.30;56.70
4578;DHT22;2301;47.354;8.528;2023-02-28T04:21:36;9.30;57.30
4578;DHT22;2301;47.354;8.528;2023-02-28T04:24:07;9.10;55.10
4578;DHT22;2301;47.354;8.528;2023-02-28T04:26:36;9.10;57.20
4578;DHT22;2301;47.354;8.528;2023-02-28T04:29:05;9.10;56.80
4578;DHT22;2301;47.354;8.528;2023-02-28T04:31:32;9.10;57.00
4578;DHT22;2301;47.354;8.528;2023-02-28T04:34:00;9.10;57.40
4578;DHT22;2301;47.354;8.528;2023-02-28T04:36:27;9.20;57.40
4578;DHT22;2301;47.354;8.528;2023-02-28T04:38:54;9.20;57.30
4578;DHT22;2301;47.354;8.528;2023-02-28T04:41:23;9.20;57.10
4578;DHT22;2301;47.354;8.528;2023-02-28T04:43:51;9.30;57.00
4578;DHT22;2301;47.354;8.528;2023-02-28T04:46:18;9.20;56.90
4578;DHT22;2301;47.354;8.528;2023-02-28T04:48:46;9.20;56.00
4578;DHT22;2301;47.354;8.528;2023-02-28T04:51:16;9.20;57.20
4578;DHT22;2301;47.354;8.528;2023-02-28T04:53:43;9.30;57.50
4578;DHT22;2301;47.354;8.528;2023-02-28T04:56:12;9.30;56.90
4578;DHT22;2301;47.354;8.528;2023-02-28T04:58:41;9.30;56.60
4578;DHT22;2301;47.354;8.528;2023-02-28T05:01:17;9.10;55.30
4578;DHT22;2301;47.354;8.528;2023-02-28T05:03:45;9.10;55.80
4578;DHT22;2301;47.354;8.528;2023-02-28T05:06:13;9.00;56.20
4578;DHT22;2301;47.354;8.528;2023-02-28T05:08:40;9.00;57.30
4578;DHT22;2301;47.354;8.528;2023-02-28T05:11:13;9.00;56.80
4578;DHT22;2301;47.354;8.528;2023-02-28T05:13:42;9.00;57.00
4578;DHT22;2301;47.354;8.528;2023-02-28T05:16:09;9.10;57.10
4578;DHT22;2301;47.354;8.528;2023-02-28T05:18:36;9.20;57.40
4578;DHT22;2301;47.354;8.528;2023-02-28T05:21:03;9.20;57.50
4578;DHT22;2301;47.354;8.528;2023-02-28T05:23:30;9.30;57.40
4578;DHT22;2301;47.354;8.528;2023-02-28T05:25:57;9.30;57.00
4578;DHT22;2301;47.354;8.528;2023-02-28T05:28:24;9.40;56.70
4578;DHT22;2301;47.354;8.528;2023-02-28T05:30:52;9.40;56.60
4578;DHT22;2301;47.354;8.528;2023-02-28T05:33:19;9.30;56.30
4578;DHT22;2301;47.354;8.528;2023-02-28T05:35:47;9.40;56.60
4578;DHT22;2301;47.354;8.528;2023-02-28T05:38:14;9.40;56.70
4578;DHT22;2301;47.354;8.528;2023-02-28T05:40:41;9.30;55.90
4578;DHT22;2301;47.354;8.528;2023-02-28T05:43:10;9.40;56.60
4578;DHT22;2301;47.354;8.528;2023-02-28T05:45:38;9.40;56.30
4578;DHT22;2301;47.354;8.528;2023-02-28T05:48:08;9.40;56.40
4578;DHT22;2301;47.354;8.528;2023-02-28T05:50:35;9.40;56.60
4578;DHT22;2301;47.354;8.528;2023-02-28T05:53:01;9.40;55.50
4578;DHT22;2301;47.354;8.528;2023-02-28T05:55:28;9.30;56.40
4578;DHT22;2301;47.354;8.528;2023-02-28T05:57:56;9.40;57.10
4578;DHT22;2301;47.354;8.528;2023-02-28T06:00:23;9.30;55.70
4578;DHT22;2301;47.354;8.528;2023-02-28T06:02:50;9.30;56.60
4578;DHT22;2301;47.354;8.528;2023-02-28T06:05:23;9.30;56.70
4578;DHT22;2301;47.354;8.528;2023-02-28T06:07:50;9.40;56.90
4578;DHT22;2301;47.354;8.528;2023-02-28T06:10:17;9.30;55.20
4578;DHT22;2301;47.354;8.528;2023-02-28T06:12:45;8.90;51.80
4578;DHT22;2301;47.354;8.528;2023-02-28T06:15:13;8.50;49.40
4578;DHT22;2301;47.354;8.528;2023-02-28T06:17:41;8.10;48.80
4578;DHT22;2301;47.354;8.528;2023-02-28T06:20:09;7.60;48.80
4578;DHT22;2301;47.354;8.528;2023-02-28T06:22:39;7.30;49.10
4578;DHT22;2301;47.354;8.528;2023-02-28T06:25:07;7.00;49.50
4578;DHT22;2301;47.354;8.528;2023-02-28T06:27:34;6.70;49.90
4578;DHT22;2301;47.354;8.528;2023-02-28T06:30:01;6.40;49.80
4578;DHT22;2301;47.354;8.528;2023-02-28T06:32:29;6.20;50.30
4578;DHT22;2301;47.354;8.528;2023-02-28T06:34:55;6.10;50.80
4578;DHT22;2301;47.354;8.528;2023-02-28T06:37:26;5.80;51.00
4578;DHT22;2301;47.354;8.528;2023-02-28T06:39:55;5.60;51.10
4578;DHT22;2301;47.354;8.528;2023-02-28T06:42:23;5.50;51.50
4578;DHT22;2301;47.354;8.528;2023-02-28T06:44:54;5.30;51.60
4578;DHT22;2301;47.354;8.528;2023-02-28T06:47:21;5.10;51.90
4578;DHT22;2301;47.354;8.528;2023-02-28T06:49:49;4.80;52.20
4578;DHT22;2301;47.354;8.528;2023-02-28T06:52:16;4.80;52.90
4578;DHT22;2301;47.354;8.528;2023-02-28T06:54:43;4.70;53.30
4578;DHT22;2301;47.354;8.528;2023-02-28T06:57:11;4.60;53.40
4578;DHT22;2301;47.354;8.528;2023-02-28T06:59:38;4.60;53.50
4578;DHT22;2301;47.354;8.528;2023-02-28T07:02:05;4.50;53.60
4578;DHT22;2301;47.354;8.528;2023-02-28T07:04:33;4.50;54.00
4578;DHT22;2301;47.354;8.528;2023-02-28T07:07:00;4.50;54.20
4578;DHT22;2301;47.354;8.528;2023-02-28T07:09:26;5.10;70.10
4578;DHT22;2301;47.354;8.528;2023-02-28T07:11:55;5.10;60.80
4578;DHT22;2301;47.354;8.528;2023-02-28T07:14:24;5.00;57.70
4578;DHT22;2301;47.354;8.528;2023-02-28T07:16:51;4.90;56.70
4578;DHT22;2301;47.354;8.528;2023-02-28T07:19:18;4.80;56.10
4578;DHT22;2301;47.354;8.528;2023-02-28T07:21:45;4.70;55.90
4578;DHT22;2301;47.354;8.528;2023-02-28T07:24:12;4.60;55.90
4578;DHT22;2301;47.354;8.528;2023-02-28T07:26:41;4.50;55.80
4578;DHT22;2301;47.354;8.528;2023-02-28T07:29:08;4.50;56.00
4578;DHT22;2301;47.354;8.528;2023-02-28T07:31:36;4.40;56.00
4578;DHT22;2301;47.354;8.528;2023-02-28T07:34:03;4.40;56.10
4578;DHT22;2301;47.354;8.528;2023-02-28T07:36:30;4.30;56.00
4578;DHT22;2301;47.354;8.528;2023-02-28T07:38:58;4.20;56.10
4578;DHT22;2301;47.354;8.528;2023-02-28T07:41:25;4.20;56.40
4578;DHT22;2301;47.354;8.528;2023-02-28T07:43:53;4.10;56.40
4578;DHT22;2301;47.354;8.528;2023-02-28T07:46:21;4.00;56.50
4578;DHT22;2301;47.354;8.528;2023-02-28T07:48:49;4.00;56.80
4578;DHT22;2301;47.354;8.528;2023-02-28T07:51:16;4.00;56.80
4578;DHT22;2301;47.354;8.528;2023-02-28T07:53:43;3.90;57.00
4578;DHT22;2301;47.354;8.528;2023-02-28T07:56:10;3.90;56.90
4578;DHT22;2301;47.354;8.528;2023-02-28T07:58:37;3.90;57.10
4578;DHT22;2301;47.354;8.528;2023-02-28T08:01:06;3.80;57.20
4578;DHT22;2301;47.354;8.528;2023-02-28T08:03:33;3.80;57.30
4578;DHT22;2301;47.354;8.528;2023-02-28T08:06:02;3.90;57.50
4578;DHT22;2301;47.354;8.528;2023-02-28T08:08:29;3.90;57.40
4578;DHT22;2301;47.354;8.528;2023-02-28T08:10:58;3.90;57.40
4578;DHT22;2301;47.354;8.528;2023-02-28T08:13:27;3.90;57.50
4578;DHT22;2301;47.354;8.528;2023-02-28T08:15:54;3.90;57.50
4578;DHT22;2301;47.354;8.528;2023-02-28T08:18:21;3.90;57.50
4578;DHT22;2301;47.354;8.528;2023-02-28T08:20:48;3.90;57.50
4578;DHT22;2301;47.354;8.528;2023-02-28T08:23:17;3.90;57.70
4578;DHT22;2301;47.354;8.528;2023-02-28T08:25:44;3.80;57.70
4578;DHT22;2301;47.354;8.528;2023-02-28T08:28:11;3.90;57.80
4578;DHT22;2301;47.354;8.528;2023-02-28T08:30:38;3.90;57.80
4578;DHT22;2301;47.354;8.528;2023-02-28T08:33:06;3.90;57.90
4578;DHT22;2301;47.354;8.528;2023-02-28T08:35:35;3.90;57.90
4578;DHT22;2301;47.354;8.528;2023-02-28T08:38:03;3.90;58.40
4578;DHT22;2301;47.354;8.528;2023-02-28T08:40:31;3.90;57.70
4578;DHT22;2301;47.354;8.528;2023-02-28T08:42:58;3.80;57.80
4578;DHT22;2301;47.354;8.528;2023-02-28T08:45:25;3.90;58.00
4578;DHT22;2301;47.354;8.528;2023-02-28T08:47:54;3.80;58.10
4578;DHT22;2301;47.354;8.528;2023-02-28T08:50:21;3.80;58.50
4578;DHT22;2301;47.354;8.528;2023-02-28T08:52:48;3.70;57.90
4578;DHT22;2301;47.354;8.528;2023-02-28T08:55:15;3.70;58.00
4578;DHT22;2301;47.354;8.528;2023-02-28T08:57:43;3.70;58.20
4578;DHT22;2301;47.354;8.528;2023-02-28T09:00:11;3.80;58.30
4578;DHT22;2301;47.354;8.528;2023-02-28T09:02:39;3.80;58.20
4578;DHT22;2301;47.354;8.528;2023-02-28T09:05:06;3.80;58.00
4578;DHT22;2301;47.354;8.528;2023-02-28T09:07:34;3.80;58.10
4578;DHT22;2301;47.354;8.528;2023-02-28T09:10:01;3.90;58.20
4578;DHT22;2301;47.354;8.528;2023-02-28T09:12:32;3.80;57.80
4578;DHT22;2301;47.354;8.528;2023-02-28T09:15:01;3.80;57.90
4578;DHT22;2301;47.354;8.528;2023-02-28T09:17:28;3.80;57.90
4578;DHT22;2301;47.354;8.528;2023-02-28T09:19:55;3.80;57.90
4578;DHT22;2301;47.354;8.528;2023-02-28T09:22:22;3.80;58.00
4578;DHT22;2301;47.354;8.528;2023-02-28T09:24:49;3.80;58.00
4578;DHT22;2301;47.354;8.528;2023-02-28T09:27:16;3.90;58.10
4578;DHT22;2301;47.354;8.528;2023-02-28T09:29:43;3.90;58.00
4578;DHT22;2301;47.354;8.528;2023-02-28T09:32:11;3.90;58.10
4578;DHT22;2301;47.354;8.528;2023-02-28T09:34:38;3.90;58.00
4578;DHT22;2301;47.354;8.528;2023-02-28T09:37:06;4.00;57.90
4578;DHT22;2301;47.354;8.528;2023-02-28T09:39:32;4.00;58.00
4578;DHT22;2301;47.354;8.528;2023-02-28T09:42:01;4.10;58.70
4578;DHT22;2301;47.354;8.528;2023-02-28T09:44:31;4.10;58.10
4578;DHT22;2301;47.354;8.528;2023-02-28T09:47:05;4.10;58.00
4578;DHT22;2301;47.354;8.528;2023-02-28T09:49:40;4.10;57.90
4578;DHT22;2301;47.354;8.528;2023-02-28T09:52:10;4.20;57.90
4578;DHT22;2301;47.354;8.528;2023-02-28T09:54:38;4.10;58.20
4578;DHT22;2301;47.354;8.528;2023-02-28T09:57:07;4.10;57.70
4578;DHT22;2301;47.354;8.528;2023-02-28T09:59:59;4.20;57.90
4578;DHT22;2301;47.354;8.528;2023-02-28T10:02:49;4.20;57.70
4578;DHT22;2301;47.354;8.528;2023-02-28T10:05:23;4.20;57.60
4578;DHT22;2301;47.354;8.528;2023-02-28T10:08:00;4.20;57.40
4578;DHT22;2301;47.354;8.528;2023-02-28T10:10:35;4.20;57.60
4578;DHT22;2301;47.354;8.528;2023-02-28T10:13:06;4.20;57.60
4578;DHT22;2301;47.354;8.528;2023-02-28T10:15:39;4.30;57.70
4578;DHT22;2301;47.354;8.528;2023-02-28T10:18:11;4.30;57.70
4578;DHT22;2301;47.354;8.528;2023-02-28T10:20:42;4.30;57.60
4578;DHT22;2301;47.354;8.528;2023-02-28T10:23:15;4.40;57.90
4578;DHT22;2301;47.354;8.528;2023-02-28T10:25:47;4.50;57.90
4578;DHT22;2301;47.354;8.528;2023-02-28T10:28:17;4.60;57.70
4578;DHT22;2301;47.354;8.528;2023-02-28T10:30:47;4.60;57.50
4578;DHT22;2301;47.354;8.528;2023-02-28T10:33:21;4.60;57.10
4578;DHT22;2301;47.354;8.528;2023-02-28T10:35:52;4.70;57.20
4578;DHT22;2301;47.354;8.528;2023-02-28T10:38:22;4.80;57.10
4578;DHT22;2301;47.354;8.528;2023-02-28T10:40:50;4.80;57.00
4578;DHT22;2301;47.354;8.528;2023-02-28T10:43:22;4.80;56.70
4578;DHT22;2301;47.354;8.528;2023-02-28T10:45:55;4.80;56.60
4578;DHT22;2301;47.354;8.528;2023-02-28T10:48:32;4.90;56.80
4578;DHT22;2301;47.354;8.528;2023-02-28T10:51:01;4.90;56.60
4578;DHT22;2301;47.354;8.528;2023-02-28T10:53:33;4.90;56.50
4578;DHT22;2301;47.354;8.528;2023-02-28T10:56:03;4.90;56.20
4578;DHT22;2301;47.354;8.528;2023-02-28T10:58:34;5.00;56.40
4578;DHT22;2301;47.354;8.528;2023-02-28T11:01:14;4.90;55.80
4578;DHT22;2301;47.354;8.528;2023-02-28T11:03:41;4.90;56.00
4578;DHT22;2301;47.354;8.528;2023-02-28T11:06:15;4.90;56.10
4578;DHT22;2301;47.354;8.528;2023-02-28T11:08:47;5.00;56.20
4578;DHT22;2301;47.354;8.528;2023-02-28T11:11:16;4.90;55.60
4578;DHT22;2301;47.354;8.528;2023-02-28T11:13:44;4.90;55.50
4578;DHT22;2301;47.354;8.528;2023-02-28T11:16:13;4.90;55.60
4578;DHT22;2301;47.354;8.528;2023-02-28T11:18:44;4.90;55.50
4578;DHT22;2301;47.354;8.528;2023-02-28T11:21:21;4.90;55.50
4578;DHT22;2301;47.354;8.528;2023-02-28T11:24:00;4.90;55.80
4578;DHT22;2301;47.354;8.528;2023-02-28T11:26:40;4.90;55.80
4578;DHT22;2301;47.354;8.528;2023-02-28T11:29:19;5.00;55.80
4578;DHT22;2301;47.354;8.528;2023-02-28T11:32:13;5.00;55.50
4578;DHT22;2301;47.354;8.528;2023-02-28T11:34:43;5.00;55.50
4578;DHT22;2301;47.354;8.528;2023-02-28T11:37:15;4.90;55.50
4578;DHT22;2301;47.354;8.528;2023-02-28T11:39:43;5.00;55.60
4578;DHT22;2301;47.354;8.528;2023-02-28T11:42:43;4.90;55.40
4578;DHT22;2301;47.354;8.528;2023-02-28T11:45:36;4.90;55.40
4578;DHT22;2301;47.354;8.528;2023-02-28T11:48:16;4.90;55.60
4578;DHT22;2301;47.354;8.528;2023-02-28T11:50:52;4.90;55.70
4578;DHT22;2301;47.354;8.528;2023-02-28T11:53:40;5.00;55.90
4578;DHT22;2301;47.354;8.528;2023-02-28T11:56:17;5.10;55.80
4578;DHT22;2301;47.354;8.528;2023-02-28T11:58:53;5.10;55.60
4578;DHT22;2301;47.354;8.528;2023-02-28T12:01:38;5.10;55.30
4578;DHT22;2301;47.354;8.528;2023-02-28T12:04:17;5.00;55.10
4578;DHT22;2301;47.354;8.528;2023-02-28T12:06:54;5.10;55.60
4578;DHT22;2301;47.354;8.528;2023-02-28T12:09:41;5.10;55.70
4578;DHT22;2301;47.354;8.528;2023-02-28T12:12:21;5.20;55.60
4578;DHT22;2301;47.354;8.528;2023-02-28T12:15:12;5.10;55.40
4578;DHT22;2301;47.354;8.528;2023-02-28T12:17:51;5.20;55.50
4578;DHT22;2301;47.354;8.528;2023-02-28T12:20:27;5.20;55.50
4578;DHT22;2301;47.354;8.528;2023-02-28T12:23:10;5.10;55.40
4578;DHT22;2301;47.354;8.528;2023-02-28T12:25:50;5.20;55.70
4578;DHT22;2301;47.354;8.528;2023-02-28T12:28:24;5.20;55.70
4578;DHT22;2301;47.354;8.528;2023-02-28T12:30:56;5.20;56.20
4578;DHT22;2301;47.354;8.528;2023-02-28T12:33:28;5.10;55.50
4578;DHT22;2301;47.354;8.528;2023-02-28T12:36:00;5.10;55.70
4578;DHT22;2301;47.354;8.528;2023-02-28T12:38:36;5.20;55.70
4578;DHT22;2301;47.354;8.528;2023-02-28T12:41:12;5.10;55.50
4578;DHT22;2301;47.354;8.528;2023-02-28T12:43:43;5.20;55.50
4578;DHT22;2301;47.354;8.528;2023-02-28T12:46:15;5.20;55.50
4578;DHT22;2301;47.354;8.528;2023-02-28T12:48:47;5.20;55.60
4578;DHT22;2301;47.354;8.528;2023-02-28T12:51:16;5.30;55.60
4578;DHT22;2301;47.354;8.528;2023-02-28T12:53:54;5.30;55.50
4578;DHT22;2301;47.354;8.528;2023-02-28T12:56:33;5.40;55.60
4578;DHT22;2301;47.354;8.528;2023-02-28T12:59:10;5.20;55.00
4578;DHT22;2301;47.354;8.528;2023-02-28T13:01:51;5.30;55.50
4578;DHT22;2301;47.354;8.528;2023-02-28T13:04:43;5.20;55.30
4578;DHT22;2301;47.354;8.528;2023-02-28T13:07:37;5.10;55.30
4578;DHT22;2301;47.354;8.528;2023-02-28T13:10:08;5.00;55.30
4578;DHT22;2301;47.354;8.528;2023-02-28T13:12:47;5.00;55.70
4578;DHT22;2301;47.354;8.528;2023-02-28T13:15:19;5.10;56.00
4578;DHT22;2301;47.354;8.528;2023-02-28T13:17:50;5.10;55.80
4578;DHT22;2301;47.354;8.528;2023-02-28T13:20:20;5.10;55.80
4578;DHT22;2301;47.354;8.528;2023-02-28T13:22:50;5.20;56.00
4578;DHT22;2301;47.354;8.528;2023-02-28T13:25:51;5.20;56.10
4578;DHT22;2301;47.354;8.528;2023-02-28T13:31:25;5.20;56.00
4578;DHT22;2301;47.354;8.528;2023-02-28T13:34:13;5.20;55.70
4578;DHT22;2301;47.354;8.528;2023-02-28T13:36:40;5.20;55.70
4578;DHT22;2301;47.354;8.528;2023-02-28T13:42:35;5.30;55.50
4578;DHT22;2301;47.354;8.528;2023-02-28T13:45:24;5.20;55.40
4578;DHT22;2301;47.354;8.528;2023-02-28T13:47:58;5.10;55.50
4578;DHT22;2301;47.354;8.528;2023-02-28T13:50:34;5.10;55.70
4578;DHT22;2301;47.354;8.528;2023-02-28T13:53:47;5.10;55.60
4578;DHT22;2301;47.354;8.528;2023-02-28T13:56:30;5.10;55.70
4578;DHT22;2301;47.354;8.528;2023-02-28T13:59:06;5.20;55.50
4578;DHT22;2301;47.354;8.528;2023-02-28T14:01:59;5.10;55.50
4578;DHT22;2301;47.354;8.528;2023-02-28T14:04:59;5.10;55.50
4578;DHT22;2301;47.354;8.528;2023-02-28T14:07:30;5.10;55.60
4578;DHT22;2301;47.354;8.528;2023-02-28T14:10:02;5.00;55.50
4578;DHT22;2301;47.354;8.528;2023-02-28T14:13:03;5.00;55.50
4578;DHT22;2301;47.354;8.528;2023-02-28T14:15:56;5.00;55.40
4578;DHT22;2301;47.354;8.528;2023-02-28T14:18:27;4.90;55.40
4578;DHT22;2301;47.354;8.528;2023-02-28T14:20:59;4.90;55.60
4578;DHT22;2301;47.354;8.528;2023-02-28T14:26:32;5.00;55.90
4578;DHT22;2301;47.354;8.528;2023-02-28T14:29:19;5.00;55.70
4578;DHT22;2301;47.354;8.528;2023-02-28T14:31:57;4.90;55.60
4578;DHT22;2301;47.354;8.528;2023-02-28T14:34:37;4.90;55.90
4578;DHT22;2301;47.354;8.528;2023-02-28T14:37:13;4.90;55.90
4578;DHT22;2301;47.354;8.528;2023-02-28T14:39:42;4.90;55.90
4578;DHT22;2301;47.354;8.528;2023-02-28T14:42:27;4.90;55.90
4578;DHT22;2301;47.354;8.528;2023-02-28T14:44:54;5.00;55.90
4578;DHT22;2301;47.354;8.528;2023-02-28T14:47:29;4.90;55.70
4578;DHT22;2301;47.354;8.528;2023-02-28T14:49:58;4.90;56.00
4578;DHT22;2301;47.354;8.528;2023-02-28T14:52:28;4.90;56.10
4578;DHT22;2301;47.354;8.528;2023-02-28T14:54:58;4.80;56.00
4578;DHT22;2301;47.354;8.528;2023-02-28T14:57:27;4.80;56.00
4578;DHT22;2301;47.354;8.528;2023-02-28T15:00:00;4.70;55.90
4578;DHT22;2301;47.354;8.528;2023-02-28T15:02:31;4.70;55.90
4578;DHT22;2301;47.354;8.528;2023-02-28T15:04:59;4.70;56.00
4578;DHT22;2301;47.354;8.528;2023-02-28T15:07:28;4.80;56.20
4578;DHT22;2301;47.354;8.528;2023-02-28T15:10:16;4.70;56.10
4578;DHT22;2301;47.354;8.528;2023-02-28T15:12:50;4.60;56.30
4578;DHT22;2301;47.354;8.528;2023-02-28T15:15:18;4.50;56.20
4578;DHT22;2301;47.354;8.528;2023-02-28T15:17:49;4.50;56.30
4578;DHT22;2301;47.354;8.528;2023-02-28T15:20:17;4.60;56.50
4578;DHT22;2301;47.354;8.528;2023-02-28T15:22:47;4.50;56.40
4578;DHT22;2301;47.354;8.528;2023-02-28T15:25:20;4.50;56.50
4578;DHT22;2301;47.354;8.528;2023-02-28T15:27:49;4.50;56.60
4578;DHT22;2301;47.354;8.528;2023-02-28T15:30:18;4.50;56.80
4578;DHT22;2301;47.354;8.528;2023-02-28T15:33:02;4.50;56.90
4578;DHT22;2301;47.354;8.528;2023-02-28T15:35:32;4.50;56.80
4578;DHT22;2301;47.354;8.528;2023-02-28T15:38:03;4.50;56.80
4578;DHT22;2301;47.354;8.528;2023-02-28T15:40:32;4.50;57.00
4578;DHT22;2301;47.354;8.528;2023-02-28T15:43:11;4.40;57.00
4578;DHT22;2301;47.354;8.528;2023-02-28T15:45:43;4.50;57.00
4578;DHT22;2301;47.354;8.528;2023-02-28T15:48:22;4.40;57.00
4578;DHT22;2301;47.354;8.528;2023-02-28T15:50:53;4.40;57.20
4578;DHT22;2301;47.354;8.528;2023-02-28T15:53:24;4.50;57.30
4578;DHT22;2301;47.354;8.528;2023-02-28T15:55:57;4.50;57.30
4578;DHT22;2301;47.354;8.528;2023-02-28T15:58:25;4.40;57.10
4578;DHT22;2301;47.354;8.528;2023-02-28T16:01:16;4.30;57.20
4578;DHT22;2301;47.354;8.528;2023-02-28T16:03:46;4.40;57.20
4578;DHT22;2301;47.354;8.528;2023-02-28T16:06:38;4.40;57.20
4578;DHT22;2301;47.354;8.528;2023-02-28T16:09:11;4.40;57.20
4578;DHT22;2301;47.354;8.528;2023-02-28T16:11:41;4.40;57.20
4578;DHT22;2301;47.354;8.528;2023-02-28T16:14:15;4.40;57.30
4578;DHT22;2301;47.354;8.528;2023-02-28T16:16:43;4.40;57.40
4578;DHT22;2301;47.354;8.528;2023-02-28T16:19:11;4.40;57.40
4578;DHT22;2301;47.354;8.528;2023-02-28T16:21:38;4.40;57.30
4578;DHT22;2301;47.354;8.528;2023-02-28T16:24:05;4.30;57.40
4578;DHT22;2301;47.354;8.528;2023-02-28T16:26:33;4.30;57.40
4578;DHT22;2301;47.354;8.528;2023-02-28T16:29:03;4.30;57.60
4578;DHT22;2301;47.354;8.528;2023-02-28T16:31:31;4.30;57.70
4578;DHT22;2301;47.354;8.528;2023-02-28T16:33:59;4.30;57.70
4578;DHT22;2301;47.354;8.528;2023-02-28T16:36:27;4.30;57.60
4578;DHT22;2301;47.354;8.528;2023-02-28T16:38:55;4.20;57.40
4578;DHT22;2301;47.354;8.528;2023-02-28T16:41:24;4.20;57.60
4578;DHT22;2301;47.354;8.528;2023-02-28T16:44:02;4.20;57.80
4578;DHT22;2301;47.354;8.528;2023-02-28T16:46:34;4.10;57.70
4578;DHT22;2301;47.354;8.528;2023-02-28T16:49:02;4.10;57.70
4578;DHT22;2301;47.354;8.528;2023-02-28T16:51:29;4.10;57.80
4578;DHT22;2301;47.354;8.528;2023-02-28T16:53:58;4.10;57.90
4578;DHT22;2301;47.354;8.528;2023-02-28T16:56:29;4.10;57.90
4578;DHT22;2301;47.354;8.528;2023-02-28T16:59:00;4.10;57.90